Time;durP1;ratioP1;P1;durP2;ratioP2;P2;SDS_P1;SDS_P2;PMS_P1;PMS_P2;Temp;Humidity;BMP_temperature;BMP_pressure;BME280_temperature;BME280_humidity;BME280_pressure;Samples;Min_cycle;Max_cycle;Signal;HPM_P1;HPM_P2
2023/08/24 00:00:22;;;;;;;10.73;5.82;;;;;;;18.35;100.00;101615.38;4937353;29;20032;-86
2023/08/24 00:02:48;;;;;;;10.83;5.80;;;;;;;18.31;100.00;101605.97;4937471;29;20461;-86
2023/08/24 00:05:16;;;;;;;7.30;5.13;;;;;;;18.28;100.00;101602.88;4920248;29;20032;-85
2023/08/24 00:07:41;;;;;;;8.98;5.45;;;;;;;18.28;100.00;101609.22;4920698;29;20126;-86
2023/08/24 00:10:07;;;;;;;9.40;5.73;;;;;;;18.22;100.00;101607.47;4920283;29;20395;-86
2023/08/24 00:12:33;;;;;;;8.93;5.35;;;;;;;18.17;100.00;101616.47;4937146;29;20524;-86
2023/08/24 00:14:58;;;;;;;10.60;5.43;;;;;;;18.18;100.00;101617.28;4936814;29;20099;-86
2023/08/24 00:17:24;;;;;;;12.30;5.28;;;;;;;18.16;100.00;101612.03;4919903;29;20039;-86
2023/08/24 00:19:50;;;;;;;8.60;5.37;;;;;;;18.15;100.00;101606.78;4937028;29;20122;-86
2023/08/24 00:22:15;;;;;;;10.20;5.40;;;;;;;18.10;100.00;101604.78;4920291;29;20127;-86
2023/08/24 00:24:40;;;;;;;9.63;5.60;;;;;;;18.09;100.00;101580.31;4888866;29;20276;-85
2023/08/24 00:27:06;;;;;;;7.50;5.17;;;;;;;18.09;100.00;101580.31;4919755;29;20071;-86
2023/08/24 00:29:31;;;;;;;8.17;5.30;;;;;;;18.04;100.00;101592.88;4919816;29;20031;-86
2023/08/24 00:31:57;;;;;;;11.20;5.37;;;;;;;18.04;100.00;101595.63;4888449;29;20040;-86
2023/08/24 00:34:23;;;;;;;8.27;5.72;;;;;;;18.02;100.00;101591.44;4920408;29;20064;-86
2023/08/24 00:36:48;;;;;;;10.07;5.67;;;;;;;18.02;100.00;101591.44;4937013;29;20047;-86
2023/08/24 00:39:13;;;;;;;8.77;5.78;;;;;;;18.04;100.00;101590.13;4888916;29;20075;-86
2023/08/24 00:41:41;;;;;;;8.73;5.47;;;;;;;18.08;100.00;101581.41;4936914;29;20039;-86
2023/08/24 00:44:07;;;;;;;10.13;5.70;;;;;;;18.10;100.00;101573.72;4920227;29;20485;-86
2023/08/24 00:46:33;;;;;;;8.20;5.47;;;;;;;18.13;100.00;101571.34;4888449;29;20036;-86
2023/08/24 00:48:59;;;;;;;10.88;5.43;;;;;;;18.17;100.00;101568.91;4919520;29;20452;-86
2023/08/24 00:51:24;;;;;;;16.75;5.53;;;;;;;18.23;100.00;101573.41;4904053;29;20122;-86
2023/08/24 00:53:50;;;;;;;9.70;5.90;;;;;;;18.22;100.00;101580.00;4919027;29;20155;-86
2023/08/24 00:56:16;;;;;;;7.70;5.53;;;;;;;18.19;100.00;101581.31;4919367;29;20115;-86
2023/08/24 00:58:43;;;;;;;6.63;5.87;;;;;;;18.19;100.00;101586.81;4936768;29;20275;-86
2023/08/24 01:01:08;;;;;;;8.52;5.50;;;;;;;18.19;100.00;101575.00;4936147;29;20044;-85
2023/08/24 01:03:34;;;;;;;11.47;5.63;;;;;;;18.21;100.00;101573.66;4888918;29;20040;-86
2023/08/24 01:05:59;;;;;;;11.65;5.95;;;;;;;18.23;100.00;101568.75;4920166;29;20031;-86
2023/08/24 01:08:25;;;;;;;9.77;5.90;;;;;;;18.20;100.00;101569.28;4903955;29;20034;-86
2023/08/24 01:11:06;;;;;;;7.53;5.77;;;;;;;18.22;100.00;101569.03;4903708;29;20035;-85
2023/08/24 01:13:59;;;;;;;10.75;6.03;;;;;;;18.22;100.00;101580.00;4940695;29;20083;-85
2023/08/24 01:16:28;;;;;;;12.00;6.72;;;;;;;18.20;100.00;101583.00;4923551;29;20102;-86
2023/08/24 01:19:01;;;;;;;10.68;6.20;;;;;;;18.22;100.00;101574.50;4923434;29;20034;-86
2023/08/24 01:21:28;;;;;;;11.85;6.32;;;;;;;18.24;100.00;101569.59;4939930;29;20032;-85
2023/08/24 01:23:59;;;;;;;9.07;6.10;;;;;;;18.30;100.00;101567.75;4923076;29;20039;-86
2023/08/24 01:26:25;;;;;;;9.68;6.00;;;;;;;18.30;100.00;101568.59;4923011;29;20032;-86
2023/08/24 01:28:52;;;;;;;10.07;5.82;;;;;;;18.33;100.00;101562.59;4892000;29;20035;-85
2023/08/24 01:31:17;;;;;;;9.80;5.70;;;;;;;18.35;100.00;101570.56;4922795;29;20103;-87
2023/08/24 01:33:44;;;;;;;9.97;5.97;;;;;;;18.36;100.00;101577.75;4923664;29;20455;-86
2023/08/24 01:36:12;;;;;;;15.18;6.47;;;;;;;18.37;100.00;101579.41;4922833;29;20491;-86
2023/08/24 01:38:38;;;;;;;8.15;5.82;;;;;;;18.33;100.00;101570.00;4922466;29;20028;-85
2023/08/24 01:41:16;;;;;;;9.40;6.10;;;;;;;18.32;100.00;101560.09;4922768;29;20095;-86
2023/08/24 01:43:44;;;;;;;8.57;6.03;;;;;;;18.29;100.00;101561.44;4939860;29;20031;-85
2023/08/24 01:46:14;;;;;;;8.50;5.95;;;;;;;18.35;100.00;101562.34;4923314;29;20382;-86
2023/08/24 01:48:40;;;;;;;9.38;6.15;;;;;;;18.40;100.00;101571.50;4922612;29;20036;-86
2023/08/24 01:51:07;;;;;;;9.93;5.97;;;;;;;18.46;100.00;101561.41;4939616;29;20202;-85
2023/08/24 01:53:33;;;;;;;8.80;6.10;;;;;;;18.50;100.00;101564.50;4922431;29;20052;-86
2023/08/24 01:55:58;;;;;;;10.80;6.63;;;;;;;18.52;100.00;101571.41;4922734;29;20039;-85
2023/08/24 01:58:24;;;;;;;12.03;5.97;;;;;;;18.55;100.00;101570.91;4922605;29;20050;-85
2023/08/24 02:00:49;;;;;;;10.27;6.13;;;;;;;18.59;100.00;101572.06;4906860;29;20032;-85
2023/08/24 02:03:15;;;;;;;7.83;5.57;;;;;;;18.66;100.00;101571.91;4922558;29;20083;-86
2023/08/24 02:05:40;;;;;;;9.00;5.77;;;;;;;18.67;100.00;101567.22;4891265;29;20044;-86
2023/08/24 02:08:05;;;;;;;8.97;5.43;;;;;;;18.67;100.00;101564.47;4939623;29;20059;-86
2023/08/24 02:10:31;;;;;;;7.67;5.83;;;;;;;18.71;100.00;101560.16;4922314;29;20366;-85
2023/08/24 02:12:56;;;;;;;9.50;5.37;;;;;;;18.74;100.00;101546.72;4906270;29;20040;-86
2023/08/24 02:15:22;;;;;;;10.37;6.07;;;;;;;18.74;100.00;101546.72;4939501;29;20115;-85
2023/08/24 02:17:47;;;;;;;9.00;5.77;;;;;;;18.74;100.00;101546.72;4906407;29;20038;-86
2023/08/24 02:20:13;;;;;;;7.18;5.90;;;;;;;18.75;100.00;101550.31;4906136;29;20066;-86
2023/08/24 02:22:38;;;;;;;10.97;5.73;;;;;;;18.80;100.00;101566.03;4921942;29;20392;-86
2023/08/24 02:25:05;;;;;;;9.23;6.50;;;;;;;18.78;100.00;101558.06;4939095;29;20132;-86
2023/08/24 02:27:32;;;;;;;9.00;6.15;;;;;;;18.81;100.00;101549.31;4921891;29;20063;-86
2023/08/24 02:29:57;;;;;;;10.50;5.93;;;;;;;18.81;100.00;101557.53;4905880;29;20567;-86
2023/08/24 02:32:22;;;;;;;9.13;6.27;;;;;;;18.84;100.00;101551.53;4905964;29;20039;-91
2023/08/24 02:34:48;;;;;;;9.73;6.77;;;;;;;18.86;100.00;101560.38;4922309;29;20035;-86
2023/08/24 02:37:13;;;;;;;12.83;6.53;;;;;;;18.88;100.00;101557.38;4921533;29;20168;-85
2023/08/24 02:39:39;;;;;;;10.38;6.00;;;;;;;18.91;100.00;101551.38;4922328;29;20031;-86
2023/08/24 02:42:04;;;;;;;8.97;5.80;;;;;;;18.89;100.00;101545.31;4938762;29;20396;-86
2023/08/24 02:44:31;;;;;;;9.73;6.10;;;;;;;18.85;100.00;101533.13;4890798;29;20043;-85
2023/08/24 02:46:57;;;;;;;9.45;5.93;;;;;;;18.88;100.00;101521.63;4922106;29;20043;-85
2023/08/24 02:49:22;;;;;;;10.48;6.20;;;;;;;18.90;100.00;101519.47;4939385;29;20036;-85
2023/08/24 02:51:48;;;;;;;11.03;6.03;;;;;;;18.91;100.00;101507.38;4938538;29;20054;-85
2023/08/24 02:54:14;;;;;;;10.57;6.57;;;;;;;18.88;100.00;101484.00;4905429;29;20142;-85
2023/08/24 02:56:39;;;;;;;9.23;6.40;;;;;;;18.89;100.00;101484.81;4905695;29;20058;-85
2023/08/24 02:59:04;;;;;;;10.03;6.63;;;;;;;18.88;100.00;101484.00;4905563;29;20039;-85
2023/08/24 03:01:30;;;;;;;13.13;7.30;;;;;;;18.82;100.00;101475.91;4938718;29;20042;-85
2023/08/24 03:03:55;;;;;;;12.43;6.57;;;;;;;18.75;100.00;101456.88;4938618;29;20334;-86
2023/08/24 03:06:21;;;;;;;11.63;6.97;;;;;;;18.75;100.00;101438.44;4938084;29;20035;-85
2023/08/24 03:08:46;;;;;;;9.30;6.60;;;;;;;18.72;100.00;101424.38;4938306;29;20032;-85
2023/08/24 03:11:11;;;;;;;14.20;7.80;;;;;;;18.69;100.00;101406.50;4937897;29;20055;-85
2023/08/24 03:13:38;;;;;;;14.07;8.05;;;;;;;18.61;100.00;101409.66;4938520;29;20528;-86
2023/08/24 03:16:05;;;;;;;14.40;8.27;;;;;;;18.58;100.00;101422.00;4938183;29;20036;-86
2023/08/24 03:18:31;;;;;;;13.75;8.63;;;;;;;18.55;100.00;101421.69;4938116;29;20564;-86
2023/08/24 03:20:56;;;;;;;13.57;8.55;;;;;;;18.56;100.00;101417.88;4937842;29;20127;-86
2023/08/24 03:23:22;;;;;;;15.67;9.10;;;;;;;18.56;100.00;101402.19;4921165;29;20032;-86
2023/08/24 03:25:47;;;;;;;13.18;8.15;;;;;;;18.61;100.00;101395.13;4937959;29;20091;-86
2023/08/24 03:28:13;;;;;;;14.47;8.37;;;;;;;18.56;100.00;101385.72;4889578;29;20091;-85
2023/08/24 03:30:45;;;;;;;18.17;8.97;;;;;;;18.55;100.00;101383.22;4920776;29;20027;-85
2023/08/24 03:33:11;;;;;;;13.95;9.25;;;;;;;18.54;100.00;101378.81;4937917;29;20126;-86
2023/08/24 03:35:36;;;;;;;16.47;9.53;;;;;;;18.54;100.00;101359.56;4889204;29;20118;-86
2023/08/24 03:38:03;;;;;;;16.73;9.70;;;;;;;18.51;100.00;101352.69;4905076;29;20481;-85
2023/08/24 03:40:28;;;;;;;14.43;10.10;;;;;;;18.52;100.00;101351.59;4921154;29;20032;-85
2023/08/24 03:42:53;;;;;;;16.93;10.07;;;;;;;18.53;100.00;101347.75;4921069;29;20465;-85
2023/08/24 03:45:20;;;;;;;17.65;11.05;;;;;;;18.53;100.00;101345.00;4920629;29;20036;-85
2023/08/24 03:47:45;;;;;;;16.37;10.63;;;;;;;18.53;100.00;101344.19;4937820;29;20047;-86
2023/08/24 03:50:11;;;;;;;18.60;12.13;;;;;;;18.56;100.00;101349.16;4904677;29;20039;-85
2023/08/24 03:52:36;;;;;;;20.17;12.83;;;;;;;18.56;100.00;101341.75;4920148;29;20472;-85
2023/08/24 03:55:02;;;;;;;20.67;12.50;;;;;;;18.55;100.00;101344.75;4937784;29;20047;-86
2023/08/24 03:57:27;;;;;;;20.27;12.65;;;;;;;18.55;100.00;101361.25;4920424;29;20046;-86
2023/08/24 03:59:53;;;;;;;21.30;12.30;;;;;;;18.57;100.00;101361.81;4920465;29;20039;-86
2023/08/24 04:02:18;;;;;;;20.53;12.60;;;;;;;18.59;100.00;101368.72;4904429;29;20091;-85
2023/08/24 04:04:44;;;;;;;18.95;12.30;;;;;;;18.57;100.00;101365.41;4920398;29;20032;-86
2023/08/24 04:07:09;;;;;;;20.47;12.07;;;;;;;18.59;100.00;101363.22;4904324;29;20461;-85
2023/08/24 04:09:35;;;;;;;19.43;12.17;;;;;;;18.57;100.00;101375.53;4920294;29;20039;-86
2023/08/24 04:12:00;;;;;;;18.95;11.93;;;;;;;18.58;100.00;101375.28;4904241;29;20032;-86
2023/08/24 04:14:29;;;;;;;15.13;11.63;;;;;;;18.61;100.00;101381.38;4919738;29;20118;-85
2023/08/24 04:16:55;;;;;;;17.88;12.73;;;;;;;18.59;100.00;101376.94;4919927;29;20628;-86
2023/08/24 04:19:20;;;;;;;18.90;12.30;;;;;;;18.58;100.00;101377.22;4936754;29;20111;-86
2023/08/24 04:21:45;;;;;;;18.53;11.97;;;;;;;18.55;100.00;101381.28;4919985;29;20055;-86
2023/08/24 04:24:11;;;;;;;16.13;11.65;;;;;;;18.55;100.00;101389.53;4919685;29;20040;-86
2023/08/24 04:26:36;;;;;;;18.07;11.70;;;;;;;18.54;100.00;101389.78;4919901;29;20036;-86
2023/08/24 04:29:02;;;;;;;20.53;11.83;;;;;;;18.52;100.00;101390.06;4919890;29;20083;-85
2023/08/24 04:31:27;;;;;;;20.10;11.50;;;;;;;18.53;100.00;101397.22;4919508;29;20373;-86
2023/08/24 04:33:52;;;;;;;18.87;11.57;;;;;;;18.46;100.00;101388.34;4936800;29;20031;-86
2023/08/24 04:36:18;;;;;;;17.55;11.70;;;;;;;18.48;100.00;101390.81;4920261;29;20028;-86
2023/08/24 04:38:43;;;;;;;16.37;11.67;;;;;;;18.47;100.00;101391.91;4920096;29;20050;-86
2023/08/24 04:41:09;;;;;;;21.60;11.43;;;;;;;18.44;100.00;101389.66;4937252;29;20086;-86
2023/08/24 04:43:37;;;;;;;18.50;11.68;;;;;;;18.40;100.00;101392.94;4919742;29;20393;-86
2023/08/24 04:46:03;;;;;;;15.93;11.35;;;;;;;18.33;100.00;101383.22;4918643;29;20118;-87
2023/08/24 04:48:34;;;;;;;17.87;12.20;;;;;;;18.27;100.00;101390.56;4919791;29;20131;-86
2023/08/24 04:51:03;;;;;;;17.33;12.00;;;;;;;18.21;100.00;101395.13;4904267;29;20053;-86
2023/08/24 04:53:32;;;;;;;18.80;12.75;;;;;;;18.13;100.00;101387.34;4903459;29;20489;-86
2023/08/24 04:55:57;;;;;;;18.90;13.60;;;;;;;18.13;100.00;101379.13;4936645;29;20066;-86
2023/08/24 04:58:23;;;;;;;21.27;13.63;;;;;;;18.12;100.00;101382.13;4903827;29;20036;-86
2023/08/24 05:00:48;;;;;;;21.33;13.50;;;;;;;18.07;100.00;101382.88;4903518;29;20040;-86
2023/08/24 05:03:14;;;;;;;18.27;13.50;;;;;;;17.99;100.00;101378.63;4919295;29;20485;-86
2023/08/24 05:05:40;;;;;;;22.05;13.95;;;;;;;17.99;100.00;101388.78;4936741;29;20032;-84
2023/08/24 05:08:11;;;;;;;21.40;14.20;;;;;;;17.94;100.00;101402.41;4903656;29;20035;-86
2023/08/24 05:10:37;;;;;;;18.67;13.88;;;;;;;17.94;100.00;101402.41;4936913;29;20068;-86
2023/08/24 05:13:03;;;;;;;23.42;14.45;;;;;;;17.93;100.00;101403.53;4936398;29;20036;-86
2023/08/24 05:15:32;;;;;;;22.60;14.60;;;;;;;17.90;100.00;101398.53;4919218;29;20039;-85
2023/08/24 05:17:59;;;;;;;22.80;14.18;;;;;;;17.89;100.00;101394.91;4904087;29;20461;-86
2023/08/24 05:20:25;;;;;;;19.95;14.20;;;;;;;17.90;100.00;101384.81;4903596;29;20039;-86
2023/08/24 05:22:51;;;;;;;22.10;14.10;;;;;;;17.90;100.00;101379.31;4919421;29;20114;-85
2023/08/24 05:25:16;;;;;;;25.47;14.93;;;;;;;17.92;100.00;101383.47;4936251;29;20452;-86
2023/08/24 05:27:42;;;;;;;22.37;15.20;;;;;;;17.98;100.00;101371.50;4936520;29;20032;-86
2023/08/24 05:30:08;;;;;;;25.43;16.00;;;;;;;18.01;100.00;101367.38;4919223;29;20768;-85
2023/08/24 05:32:37;;;;;;;20.20;14.43;;;;;;;18.03;100.00;101368.81;4935988;29;20032;-86
2023/08/24 05:35:03;;;;;;;23.48;15.15;;;;;;;18.05;100.00;101368.56;4904266;29;20043;-86
2023/08/24 05:37:29;;;;;;;20.10;14.73;;;;;;;18.08;100.00;101370.78;4936092;29;20449;-87
2023/08/24 05:39:54;;;;;;;20.45;15.82;;;;;;;18.12;100.00;101362.91;4902633;29;20052;-87
2023/08/24 05:42:20;;;;;;;25.67;15.00;;;;;;;18.16;100.00;101372.25;4918989;29;20083;-87
2023/08/24 05:44:45;;;;;;;23.93;15.20;;;;;;;18.17;100.00;101363.81;4936352;29;20074;-84
2023/08/24 05:47:10;;;;;;;23.63;15.30;;;;;;;18.20;100.00;101362.44;4903825;29;20480;-83
2023/08/24 05:49:36;;;;;;;21.42;15.32;;;;;;;18.26;100.00;101364.16;4903148;29;20031;-83
2023/08/24 05:52:01;;;;;;;24.73;15.30;;;;;;;18.28;100.00;101358.41;4918894;29;20095;-84
2023/08/24 05:54:27;;;;;;;23.43;15.47;;;;;;;18.32;100.00;101354.94;4918592;29;20055;-83
2023/08/24 05:56:52;;;;;;;23.03;15.57;;;;;;;18.33;100.00;101342.84;4919653;29;20070;-91
2023/08/24 05:59:18;;;;;;;25.83;15.43;;;;;;;18.36;100.00;101334.06;4907592;29;20030;-91
2023/08/24 06:01:43;;;;;;;21.70;15.07;;;;;;;18.40;100.00;101335.22;4939569;29;20027;-92
2023/08/24 06:04:09;;;;;;;21.47;15.03;;;;;;;18.47;100.00;101323.22;4922254;29;20388;-91
2023/08/24 06:06:35;;;;;;;23.67;16.73;;;;;;;18.48;100.00;101324.88;4940252;29;20389;-90
2023/08/24 06:09:00;;;;;;;23.15;14.95;;;;;;;18.53;100.00;101317.53;4922577;29;20127;-91
2023/08/24 06:11:32;;;;;;;21.77;15.82;;;;;;;18.56;100.00;101303.28;4906531;29;20555;-90
2023/08/24 06:13:57;;;;;;;22.07;15.53;;;;;;;18.62;100.00;101300.59;4939834;29;20467;-91
2023/08/24 06:16:23;;;;;;;22.58;15.55;;;;;;;18.65;100.00;101294.59;4922244;29;20036;-91
2023/08/24 06:18:49;;;;;;;24.67;15.47;;;;;;;18.70;100.00;101300.13;4922908;29;20090;-91
2023/08/24 06:21:15;;;;;;;25.30;15.30;;;;;;;18.75;100.00;101303.75;4906971;29;20043;-90
2023/08/24 06:23:41;;;;;;;24.23;15.80;;;;;;;18.79;100.00;101305.97;4938807;29;20026;-89
2023/08/24 06:26:06;;;;;;;21.08;14.82;;;;;;;18.88;100.00;101310.78;4906593;29;20388;-89
2023/08/24 06:28:32;;;;;;;24.13;15.73;;;;;;;18.93;100.00;101312.75;4922210;29;20059;-90
2023/08/24 06:30:57;;;;;;;20.50;14.70;;;;;;;19.03;100.00;101310.09;4921884;29;20038;-89
2023/08/24 06:33:33;;;;;;;22.10;14.73;;;;;;;19.06;100.00;101309.59;4921880;29;20046;-89
2023/08/24 06:35:58;;;;;;;21.35;15.82;;;;;;;19.18;100.00;101314.91;4940237;29;20059;-89
2023/08/24 06:38:25;;;;;;;23.27;14.87;;;;;;;19.26;100.00;101316.34;4906900;29;20107;-89
2023/08/24 06:40:51;;;;;;;21.87;15.00;;;;;;;19.29;100.00;101310.31;4922332;29;20354;-93
2023/08/24 06:43:16;;;;;;;20.65;14.20;;;;;;;19.38;100.00;101310.66;4938909;29;20505;-93
2023/08/24 06:45:46;;;;;;;21.97;14.50;;;;;;;19.46;100.00;101310.19;4923135;29;20035;-93
2023/08/24 06:48:14;;;;;;;19.85;13.32;;;;;;;19.53;100.00;101307.19;4922364;29;20043;-93
2023/08/24 06:50:42;;;;;;;21.05;12.77;;;;;;;19.61;100.00;101310.28;4922323;29;20028;-93
2023/08/24 06:53:07;;;;;;;18.67;12.60;;;;;;;19.70;100.00;101302.34;4906235;29;20027;-92
2023/08/24 06:55:32;;;;;;;18.25;13.05;;;;;;;19.78;100.00;101312.91;4906298;29;20111;-93
2023/08/24 06:57:58;;;;;;;21.67;13.53;;;;;;;19.84;100.00;101311.00;4906813;29;20098;-93
2023/08/24 07:00:25;;;;;;;18.80;12.93;;;;;;;19.93;100.00;101311.31;4922344;29;20063;-93
2023/08/24 07:02:53;;;;;;;18.20;12.52;;;;;;;20.01;100.00;101316.31;4922009;29;20039;-94
2023/08/24 07:05:18;;;;;;;22.10;13.68;;;;;;;20.10;100.00;101309.19;4921965;29;20091;-93
2023/08/24 07:07:57;;;;;;;22.10;12.03;;;;;;;20.21;100.00;101303.75;4923015;29;20035;-93
2023/08/24 07:10:23;;;;;;;19.88;12.75;;;;;;;20.32;100.00;101294.41;4938198;29;20100;-93
2023/08/24 07:12:48;;;;;;;17.70;12.30;;;;;;;20.45;100.00;101293.09;4921971;29;20059;-93
2023/08/24 07:15:14;;;;;;;21.77;12.50;;;;;;;20.55;100.00;101289.53;4921853;29;20095;-93
2023/08/24 07:17:39;;;;;;;18.63;11.87;;;;;;;20.67;100.00;101287.41;4921895;29;20083;-93
2023/08/24 07:20:06;;;;;;;17.67;11.70;;;;;;;20.78;100.00;101278.00;4922330;29;20031;-93
2023/08/24 07:22:32;;;;;;;16.85;11.25;;;;;;;20.89;98.67;101286.31;4922064;29;20396;-93
2023/08/24 07:24:58;;;;;;;17.85;11.18;;;;;;;21.01;97.99;101276.66;4938424;29;20036;-93
2023/08/24 07:27:23;;;;;;;16.20;10.80;;;;;;;21.19;97.01;101283.56;4890425;29;20091;-93
2023/08/24 07:29:49;;;;;;;15.05;10.98;;;;;;;21.31;95.68;101277.75;4906100;29;20380;-93
2023/08/24 07:32:14;;;;;;;18.90;11.03;;;;;;;21.50;95.19;101278.03;4922248;29;20046;-93
2023/08/24 07:34:40;;;;;;;16.30;10.53;;;;;;;21.70;93.52;101273.56;4921856;29;20028;-93
2023/08/24 07:37:09;;;;;;;15.85;10.77;;;;;;;21.93;92.17;101268.56;4921000;29;20031;-94
2023/08/24 07:39:38;;;;;;;16.63;11.20;;;;;;;22.17;91.36;101275.06;4921735;29;20027;-94
2023/08/24 07:42:08;;;;;;;16.48;9.60;;;;;;;22.45;89.78;101274.69;4921432;29;20035;-93
2023/08/24 07:44:36;;;;;;;14.60;10.53;;;;;;;22.67;88.69;101272.31;4906326;29;20160;-94
2023/08/24 07:47:04;;;;;;;16.58;10.38;;;;;;;22.90;87.88;101269.97;4921388;29;20044;-93
2023/08/24 07:49:29;;;;;;;15.98;9.43;;;;;;;23.19;86.32;101270.00;4905868;29;20043;-94
2023/08/24 07:51:57;;;;;;;16.93;9.83;;;;;;;23.43;84.25;101269.22;4921418;29;20069;-94
2023/08/24 07:54:23;;;;;;;16.85;9.52;;;;;;;23.63;82.86;101279.28;4921324;29;20055;-93
2023/08/24 07:56:50;;;;;;;14.10;9.30;;;;;;;23.87;81.79;101267.41;4921227;29;20032;-93
2023/08/24 07:59:16;;;;;;;11.23;8.60;;;;;;;24.09;81.31;101281.53;4921115;29;20036;-94
2023/08/24 08:01:41;;;;;;;16.90;9.20;;;;;;;24.26;80.90;101288.56;4938804;29;20035;-94
2023/08/24 08:04:07;;;;;;;17.50;9.03;;;;;;;24.44;78.78;101281.38;4920942;29;20287;-94
2023/08/24 08:06:32;;;;;;;15.20;8.27;;;;;;;24.63;77.69;101281.41;4921024;29;20165;-93
2023/08/24 08:09:00;;;;;;;13.50;8.33;;;;;;;24.75;76.64;101273.47;4920711;29;20061;-94
2023/08/24 08:11:28;;;;;;;12.68;8.05;;;;;;;24.93;75.58;101271.78;4921400;29;20030;-94
2023/08/24 08:13:56;;;;;;;12.40;7.35;;;;;;;25.09;74.23;101269.56;4921152;29;20031;-94
2023/08/24 08:16:24;;;;;;;17.48;7.90;;;;;;;25.25;73.13;101263.78;4905734;29;20118;-94
2023/08/24 08:18:54;;;;;;;15.73;8.10;;;;;;;25.45;72.52;101257.03;4906744;29;20469;-94
2023/08/24 08:21:23;;;;;;;10.63;7.17;;;;;;;25.64;71.81;101251.41;4921478;29;20040;-94
2023/08/24 08:23:51;;;;;;;13.55;7.03;;;;;;;25.83;71.69;101243.78;4921362;29;20479;-93
2023/08/24 08:26:17;;;;;;;10.90;7.22;;;;;;;25.98;70.71;101242.63;4905311;29;20040;-94
2023/08/24 08:28:44;;;;;;;13.90;8.47;;;;;;;26.14;70.22;101237.59;4921572;29;20083;-94
2023/08/24 08:31:10;;;;;;;10.98;7.80;;;;;;;26.16;69.46;101245.63;4905082;29;20550;-94
2023/08/24 08:33:38;;;;;;;12.13;7.57;;;;;;;26.29;69.92;101255.09;4905285;29;20043;-94
2023/08/24 08:36:04;;;;;;;14.30;7.63;;;;;;;26.46;67.77;101246.06;4904939;29;20036;-94
2023/08/24 08:38:38;;;;;;;13.52;8.55;;;;;;;26.61;68.47;101242.94;4937652;29;20035;-94
2023/08/24 08:41:26;;;;;;;13.68;8.68;;;;;;;26.72;68.19;101230.47;4920751;29;20083;-94
2023/08/24 08:43:52;;;;;;;13.63;7.95;;;;;;;26.94;67.39;101226.00;4920943;29;20030;-94
2023/08/24 08:46:17;;;;;;;12.07;7.17;;;;;;;27.03;66.21;101218.56;4920404;29;20031;-94
2023/08/24 08:48:52;;;;;;;13.67;7.23;;;;;;;27.24;66.23;101204.06;4920272;29;20043;-94
2023/08/24 08:51:31;;;;;;;;;;;;;;;;;;;;;
2023/08/24 08:53:57;;;;;;;15.65;7.45;;;;;;;27.52;64.32;101181.59;4937348;29;20066;-94
2023/08/24 08:56:23;;;;;;;16.13;7.30;;;;;;;27.72;63.96;101182.97;4920055;29;20570;-93
2023/08/24 08:58:49;;;;;;;13.40;8.02;;;;;;;27.84;63.84;101177.59;4922711;29;20106;-94
2023/08/24 09:01:19;;;;;;;14.82;8.32;;;;;;;28.02;63.00;101172.88;4920200;29;20043;-94
2023/08/24 09:03:48;;;;;;;11.10;7.90;;;;;;;28.10;63.22;101165.69;4920351;29;20416;-94
2023/08/24 09:06:16;;;;;;;13.02;8.15;;;;;;;28.21;62.41;101160.59;4920148;29;20024;-94
2023/08/24 09:08:42;;;;;;;14.80;7.77;;;;;;;28.29;61.62;101145.84;4920483;29;20032;-94
2023/08/24 09:11:13;;;;;;;16.60;8.77;;;;;;;28.30;61.11;101145.50;4920051;29;20111;-94
2023/08/24 09:13:44;;;;;;;16.92;7.82;;;;;;;28.48;61.75;101135.16;4921014;29;20071;-93
2023/08/24 09:16:20;;;;;;;;;;;;;;;;;;;;;
2023/08/24 09:18:49;;;;;;;11.47;8.03;;;;;;;28.71;59.33;101112.63;4938042;29;20039;-95
2023/08/24 09:21:17;;;;;;;11.40;7.75;;;;;;;28.86;58.91;101105.69;4904326;29;20135;-94
2023/08/24 09:23:55;;;;;;;10.48;7.47;;;;;;;29.03;59.75;101102.81;4920574;29;20436;-94
2023/08/24 09:26:29;;;;;;;12.23;7.30;;;;;;;29.07;58.42;101103.00;4920325;29;20066;-94
2023/08/24 09:28:55;;;;;;;12.77;7.38;;;;;;;29.10;58.21;101104.28;4920556;29;20047;-94
2023/08/24 09:31:20;;;;;;;11.33;6.83;;;;;;;29.32;57.89;101109.63;4920129;29;20118;-95
2023/08/24 09:33:47;;;;;;;12.47;7.03;;;;;;;29.51;58.22;101120.38;4923191;29;20086;-94
2023/08/24 09:36:14;;;;;;;13.93;8.95;;;;;;;29.59;58.09;101124.28;4923735;29;20032;-94
2023/08/24 09:38:47;;;;;;;13.63;8.98;;;;;;;29.79;58.45;101131.03;4923843;29;20031;-94
2023/08/24 09:41:18;;;;;;;11.77;8.93;;;;;;;29.82;57.63;101149.94;4924278;29;20357;-94
2023/08/24 09:43:44;;;;;;;14.83;9.13;;;;;;;29.95;57.16;101164.03;4923850;29;20032;-94
2023/08/24 09:46:09;;;;;;;13.55;8.80;;;;;;;30.03;57.28;101158.38;4923951;29;20091;-94
2023/08/24 09:48:35;;;;;;;15.27;9.07;;;;;;;30.05;56.40;101164.44;4923858;29;20063;-94
2023/08/24 09:51:06;;;;;;;15.77;9.20;;;;;;;30.06;57.07;101163.28;4923545;29;20032;-94
2023/08/24 09:53:39;;;;;;;13.18;8.93;;;;;;;30.07;56.61;101155.69;4922925;29;20031;-94
2023/08/24 09:56:07;;;;;;;14.88;9.23;;;;;;;30.22;57.29;101171.88;4923652;29;20063;-95
2023/08/24 09:58:32;;;;;;;13.13;8.77;;;;;;;30.10;57.64;101174.59;4923592;29;20032;-94
2023/08/24 10:01:01;;;;;;;15.83;8.87;;;;;;;30.07;57.47;101180.88;4923104;29;20035;-94
2023/08/24 10:03:27;;;;;;;13.63;8.73;;;;;;;29.96;57.49;101174.88;4923242;29;20036;-94
2023/08/24 10:05:55;;;;;;;13.75;8.88;;;;;;;30.07;56.74;101190.09;4923398;29;20027;-94
2023/08/24 10:08:28;;;;;;;11.45;8.43;;;;;;;29.79;57.54;101191.75;4923145;29;20370;-94
2023/08/24 10:10:58;;;;;;;10.55;6.82;;;;;;;29.47;57.13;101200.47;4922445;29;20101;-94
2023/08/24 10:14:01;;;;;;;13.53;6.80;;;;;;;29.36;57.92;101199.19;4923234;29;20039;-95
2023/08/24 10:16:30;;;;;;;8.70;6.18;;;;;;;29.14;58.78;101197.44;4890272;29;20040;-94
2023/08/24 10:18:55;;;;;;;12.35;6.15;;;;;;;28.96;58.67;101189.09;4923116;29;20043;-95
2023/08/24 10:21:26;;;;;;;10.93;6.65;;;;;;;28.67;59.40;101185.06;4923807;29;20369;-94
2023/08/24 10:24:06;;;;;;;11.57;6.07;;;;;;;28.31;59.73;101183.41;4923283;29;20547;-95
2023/08/24 10:26:33;;;;;;;9.77;5.65;;;;;;;27.89;61.33;101188.59;4923707;29;20035;-95
2023/08/24 10:29:06;;;;;;;10.88;5.72;;;;;;;27.92;61.41;101184.31;4922798;29;20036;-95
2023/08/24 10:31:32;;;;;;;11.13;5.47;;;;;;;27.70;61.23;101199.19;4923205;29;20032;-95
2023/08/24 10:33:59;;;;;;;8.32;4.63;;;;;;;27.27;62.87;101203.44;4922840;29;20036;-95
2023/08/24 10:36:26;;;;;;;11.33;4.87;;;;;;;26.96;64.98;101210.63;4922765;29;20032;-95
2023/08/24 10:38:55;;;;;;;10.30;5.28;;;;;;;26.71;66.21;101208.53;4922787;29;20110;-94
2023/08/24 10:41:28;;;;;;;7.65;4.95;;;;;;;26.47;67.44;101217.13;4922788;29;20031;-95
2023/08/24 10:44:07;;;;;;;7.40;4.90;;;;;;;26.31;67.69;101219.44;4921549;29;20032;-94
2023/08/24 10:46:38;;;;;;;6.93;4.90;;;;;;;26.08;68.37;101225.75;4923498;29;20031;-95
2023/08/24 10:49:04;;;;;;;10.70;5.50;;;;;;;25.78;70.31;101215.25;4922712;29;20057;-95
2023/08/24 10:51:31;;;;;;;12.80;5.15;;;;;;;25.65;70.42;101220.53;4922329;29;20556;-95
2023/08/24 10:54:07;;;;;;;14.13;5.80;;;;;;;25.57;71.87;101226.81;4922320;29;20059;-95
2023/08/24 10:56:38;;;;;;;11.82;5.60;;;;;;;25.61;72.41;101208.38;4923696;29;20510;-94
2023/08/24 10:59:34;;;;;;;15.10;6.15;;;;;;;25.70;71.78;101202.94;4922633;29;20354;-94
2023/08/24 11:02:04;;;;;;;14.07;6.47;;;;;;;25.66;72.87;101183.28;4921136;29;20040;-94
2023/08/24 11:04:42;;;;;;;;;;;;;;;;;;;;;
2023/08/24 11:07:16;;;;;;;11.10;6.90;;;;;;;25.64;73.86;101199.44;4940317;29;20032;-94
2023/08/24 11:09:49;;;;;;;10.82;6.90;;;;;;;25.73;73.28;101189.25;4922385;29;20125;-94
2023/08/24 11:12:17;;;;;;;16.45;7.25;;;;;;;25.70;74.03;101181.53;4922108;29;20036;-94
2023/08/24 11:14:55;;;;;;;11.93;6.77;;;;;;;25.96;73.77;101185.72;4921761;29;20031;-95